Time;durP1;ratioP1;P1;durP2;ratioP2;P2;SDS_P1;SDS_P2;PMS_P1;PMS_P2;Temp;Humidity;BMP_temperature;BMP_pressure;BME280_temperature;BME280_humidity;BME280_pressure;Samples;Min_cycle;Max_cycle;Signal;HPM_P1;HPM_P2
2021/05/03 00:00:09;;;;;;;1.08;1.08;;;4.70;99.90;;;;;;5032309;28;20195;-79
2021/05/03 00:02:36;;;;;;;0.50;0.40;;;4.70;99.90;;;;;;5032472;28;20225;-78
2021/05/03 00:05:04;;;;;;;0.50;0.40;;;4.70;99.90;;;;;;5036821;28;20197;-80
2021/05/03 00:07:30;;;;;;;0.50;0.40;;;4.60;99.90;;;;;;5035692;28;20202;-77
2021/05/03 00:09:57;;;;;;;0.50;0.40;;;4.50;99.90;;;;;;5032262;28;20199;-76
2021/05/03 00:12:23;;;;;;;0.50;0.40;;;4.50;99.90;;;;;;5031718;28;20272;-78
2021/05/03 00:14:50;;;;;;;0.50;0.40;;;4.40;99.90;;;;;;5031433;28;20672;-74
2021/05/03 00:17:16;;;;;;;0.50;0.40;;;4.40;99.90;;;;;;5031581;28;20209;-78
2021/05/03 00:19:43;;;;;;;0.50;0.40;;;4.40;99.90;;;;;;5031847;28;20207;-78
2021/05/03 00:22:10;;;;;;;0.50;0.40;;;4.30;99.90;;;;;;5030912;28;20219;-77
2021/05/03 00:24:37;;;;;;;0.50;0.40;;;4.20;99.90;;;;;;5031574;28;20194;-78
2021/05/03 00:27:03;;;;;;;0.50;0.40;;;4.20;99.90;;;;;;5030496;28;20202;-78
2021/05/03 00:29:29;;;;;;;0.60;0.60;;;4.10;99.90;;;;;;5031844;28;20203;-78
2021/05/03 00:31:56;;;;;;;0.50;0.40;;;4.10;99.90;;;;;;5030747;28;20222;-78
2021/05/03 00:34:22;;;;;;;0.50;0.40;;;4.00;99.90;;;;;;5032005;28;20205;-78
2021/05/03 00:36:48;;;;;;;0.50;0.40;;;4.00;99.90;;;;;;5031777;28;20198;-78
2021/05/03 00:39:15;;;;;;;0.50;0.40;;;4.00;99.90;;;;;;5031703;28;20578;-79
2021/05/03 00:41:42;;;;;;;0.50;0.50;;;4.00;99.90;;;;;;5030910;28;20684;-78
2021/05/03 00:44:08;;;;;;;0.50;0.40;;;3.90;99.90;;;;;;5031968;28;20202;-79
2021/05/03 00:46:34;;;;;;;0.50;0.40;;;3.90;99.90;;;;;;5031985;28;20202;-78
2021/05/03 00:49:01;;;;;;;0.50;0.40;;;3.80;99.90;;;;;;5032173;28;20197;-78
2021/05/03 00:51:28;;;;;;;0.50;0.40;;;3.70;99.90;;;;;;5031480;28;20230;-77
2021/05/03 00:53:54;;;;;;;0.50;0.40;;;3.80;99.90;;;;;;5032261;28;20200;-78
2021/05/03 00:56:22;;;;;;;0.50;0.50;;;3.70;99.90;;;;;;5032326;28;20199;-78
2021/05/03 00:58:48;;;;;;;0.50;0.43;;;3.70;99.90;;;;;;5031932;28;20205;-79
2021/05/03 01:01:14;;;;;;;0.50;0.40;;;3.70;99.90;;;;;;5031837;28;20219;-79
2021/05/03 01:03:40;;;;;;;0.50;0.40;;;3.60;99.90;;;;;;5031437;28;20623;-79
2021/05/03 01:06:07;;;;;;;0.50;0.40;;;3.60;99.90;;;;;;5031847;28;20198;-78
2021/05/03 01:08:33;;;;;;;0.50;0.40;;;3.50;99.90;;;;;;5031781;28;20197;-79
2021/05/03 01:11:00;;;;;;;0.50;0.40;;;3.50;99.90;;;;;;5030921;28;20194;-76
2021/05/03 01:13:27;;;;;;;0.50;0.40;;;3.50;99.90;;;;;;5031120;28;20196;-78
2021/05/03 01:15:53;;;;;;;0.50;0.40;;;3.50;99.90;;;;;;5031551;28;20198;-78
2021/05/03 01:18:24;;;;;;;0.50;0.40;;;3.50;99.90;;;;;;5031514;28;20210;-76
2021/05/03 01:20:54;;;;;;;0.50;0.40;;;3.50;99.90;;;;;;5031610;28;20222;-78
2021/05/03 01:23:20;;;;;;;0.50;0.43;;;3.60;99.90;;;;;;5030282;28;20687;-78
2021/05/03 01:25:46;;;;;;;0.50;0.40;;;3.60;99.90;;;;;;5030713;28;20190;-78
2021/05/03 01:28:13;;;;;;;0.50;0.40;;;3.70;99.90;;;;;;5031359;28;20225;-78
2021/05/03 01:30:41;;;;;;;0.50;0.40;;;3.70;99.90;;;;;;5031028;28;20600;-77
2021/05/03 01:33:10;;;;;;;0.50;0.40;;;3.70;99.90;;;;;;5030619;28;20218;-78
2021/05/03 01:35:38;;;;;;;0.50;0.40;;;3.80;99.90;;;;;;5031399;28;20197;-78
2021/05/03 01:38:07;;;;;;;0.50;0.40;;;3.80;99.90;;;;;;5033013;28;20208;-79
2021/05/03 01:40:37;;;;;;;0.50;0.40;;;3.80;99.90;;;;;;5036277;28;20209;-79
2021/05/03 01:43:14;;;;;;;0.50;0.50;;;3.70;99.90;;;;;;5035212;28;20221;-78
2021/05/03 01:45:42;;;;;;;0.50;0.40;;;3.80;99.90;;;;;;5035519;28;20530;-78
2021/05/03 01:48:11;;;;;;;0.55;0.55;;;3.80;99.90;;;;;;5035335;28;20198;-79
2021/05/03 01:50:38;;;;;;;1.08;1.05;;;3.80;99.90;;;;;;5034821;28;20206;-77
2021/05/03 01:53:07;;;;;;;0.50;0.40;;;3.90;99.90;;;;;;5034908;28;20217;-78
2021/05/03 01:55:34;;;;;;;0.50;0.40;;;4.00;99.90;;;;;;5034612;28;20198;-78
2021/05/03 01:58:01;;;;;;;0.50;0.40;;;3.90;99.90;;;;;;5034910;28;20194;-80
2021/05/03 02:00:27;;;;;;;0.50;0.40;;;3.90;99.90;;;;;;5034937;28;20198;-79
2021/05/03 02:02:54;;;;;;;0.50;0.40;;;3.90;99.90;;;;;;5033942;28;20261;-78
2021/05/03 02:05:21;;;;;;;0.90;0.90;;;4.00;99.90;;;;;;5035304;28;20202;-78
2021/05/03 02:07:55;;;;;;;0.65;0.60;;;4.10;99.90;;;;;;5034452;28;20202;-77
2021/05/03 02:10:23;;;;;;;0.65;0.52;;;4.20;99.90;;;;;;5034069;28;20212;-78
2021/05/03 02:12:49;;;;;;;0.50;0.40;;;4.20;99.90;;;;;;5034028;28;20227;-78
2021/05/03 02:15:16;;;;;;;0.80;0.80;;;4.20;99.90;;;;;;5033934;28;20553;-79
2021/05/03 02:17:43;;;;;;;0.50;0.40;;;4.10;99.90;;;;;;5036783;28;20247;-77
2021/05/03 02:20:10;;;;;;;1.15;1.15;;;4.10;99.90;;;;;;5034164;28;20197;-77
2021/05/03 02:22:36;;;;;;;0.50;0.40;;;4.10;99.90;;;;;;5033238;28;20242;-78
2021/05/03 02:25:03;;;;;;;0.70;0.70;;;4.10;99.90;;;;;;5034372;28;20202;-77
2021/05/03 02:27:30;;;;;;;0.50;0.40;;;4.10;99.90;;;;;;5035121;28;20592;-78
2021/05/03 02:29:56;;;;;;;0.50;0.40;;;4.10;99.90;;;;;;5033922;28;20244;-77
2021/05/03 02:32:23;;;;;;;0.82;0.73;;;4.00;99.90;;;;;;5033707;28;20753;-78
2021/05/03 02:34:50;;;;;;;0.50;0.50;;;4.00;99.90;;;;;;5033643;28;20198;-77
2021/05/03 02:37:16;;;;;;;0.50;0.50;;;4.00;99.90;;;;;;5034257;28;20207;-79
2021/05/03 02:39:42;;;;;;;0.50;0.40;;;4.00;99.90;;;;;;5035638;28;20202;-80
2021/05/03 02:42:09;;;;;;;3.55;2.45;;;3.90;99.90;;;;;;5032830;28;20211;-78
2021/05/03 02:44:38;;;;;;;0.60;0.50;;;3.90;99.90;;;;;;5034396;28;20206;-78
2021/05/03 02:47:06;;;;;;;0.80;0.80;;;3.90;99.90;;;;;;5033660;28;20248;-77
2021/05/03 02:49:32;;;;;;;0.50;0.40;;;3.90;99.90;;;;;;5032435;28;20202;-78
2021/05/03 02:51:59;;;;;;;0.70;0.70;;;3.90;99.90;;;;;;5033301;28;20224;-77
2021/05/03 02:54:25;;;;;;;1.25;1.10;;;3.90;99.90;;;;;;5033223;28;20204;-77
2021/05/03 02:59:19;;;;;;;0.50;0.50;;;3.90;99.90;;;;;;5031379;28;20209;-81
2021/05/03 03:01:46;;;;;;;0.50;0.50;;;3.90;99.90;;;;;;5037120;28;20649;-83
2021/05/03 03:04:13;;;;;;;0.50;0.40;;;3.80;99.90;;;;;;5048676;28;20197;-82
2021/05/03 03:06:39;;;;;;;74.05;12.15;;;3.90;99.90;;;;;;5039898;28;20211;-81
2021/05/03 03:09:06;;;;;;;0.60;0.50;;;3.90;99.90;;;;;;5008814;28;20208;-82
2021/05/03 03:11:32;;;;;;;0.50;0.40;;;3.90;99.90;;;;;;5008332;28;20199;-81
2021/05/03 03:14:01;;;;;;;0.70;0.70;;;3.90;99.90;;;;;;5016154;28;20867;-81
2021/05/03 03:16:27;;;;;;;0.50;0.40;;;3.80;99.90;;;;;;5022775;28;20198;-82
2021/05/03 03:18:55;;;;;;;0.50;0.50;;;3.80;99.90;;;;;;5028006;28;20237;-81
2021/05/03 03:21:22;;;;;;;0.50;0.50;;;3.80;99.90;;;;;;5027894;28;20217;-82
2021/05/03 03:23:48;;;;;;;0.50;0.50;;;3.80;99.90;;;;;;5027142;28;20227;-81
2021/05/03 03:26:14;;;;;;;0.50;0.40;;;3.70;99.90;;;;;;5027934;28;20196;-81
2021/05/03 03:28:41;;;;;;;0.60;0.60;;;3.70;99.90;;;;;;5027860;28;20594;-81
2021/05/03 03:31:07;;;;;;;0.50;0.40;;;3.70;99.90;;;;;;5028133;28;20293;-81
2021/05/03 03:33:33;;;;;;;0.50;0.50;;;3.70;99.90;;;;;;5027207;28;20202;-81
2021/05/03 03:36:01;;;;;;;0.50;0.50;;;3.60;99.90;;;;;;5025312;28;20198;-80
2021/05/03 03:38:27;;;;;;;0.50;0.40;;;3.60;99.90;;;;;;5025013;28;20225;-81
2021/05/03 03:40:53;;;;;;;0.90;0.82;;;3.60;99.90;;;;;;5025114;28;20308;-80
2021/05/03 03:43:20;;;;;;;0.50;0.40;;;3.50;99.90;;;;;;5014462;28;20226;-80
2021/05/03 03:45:46;;;;;;;1.15;1.15;;;3.50;99.90;;;;;;5013114;28;20214;-80
2021/05/03 03:48:12;;;;;;;3.88;3.53;;;3.50;99.90;;;;;;5004778;28;20228;-79
2021/05/03 03:50:39;;;;;;;1.33;1.30;;;3.50;99.90;;;;;;5007175;28;20247;-80
2021/05/03 03:53:06;;;;;;;0.50;0.40;;;3.40;99.90;;;;;;5006963;28;20263;-78
2021/05/03 03:55:32;;;;;;;0.50;0.40;;;3.50;99.90;;;;;;5010404;28;20203;-80
2021/05/03 03:57:59;;;;;;;0.60;0.60;;;3.40;99.90;;;;;;5010417;28;20234;-80
2021/05/03 04:00:25;;;;;;;0.80;0.80;;;3.40;99.90;;;;;;5008169;28;20581;-80
2021/05/03 04:02:53;;;;;;;0.80;0.80;;;3.40;99.90;;;;;;5006131;28;20219;-79
2021/05/03 04:05:29;;;;;;;0.50;0.40;;;3.40;99.90;;;;;;5006629;28;20206;-79
2021/05/03 04:07:59;;;;;;;0.98;0.98;;;3.40;99.90;;;;;;5018068;28;20269;-80
2021/05/03 04:10:33;;;;;;;2.88;1.92;;;3.40;99.90;;;;;;5009171;28;20211;-80
2021/05/03 04:21:14;;;;;;;0.73;0.73;;;3.50;99.90;;;;;;5027941;28;20244;-81
2021/05/03 04:23:51;;;;;;;0.50;0.50;;;3.40;99.90;;;;;;5028160;28;20685;-77
2021/05/03 04:26:20;;;;;;;4.20;1.85;;;3.50;99.90;;;;;;5027829;28;20182;-80
2021/05/03 04:28:49;;;;;;;0.50;0.40;;;3.60;99.90;;;;;;5033598;28;20202;-79
2021/05/03 04:31:15;;;;;;;0.90;0.90;;;3.60;99.90;;;;;;5031322;28;20261;-80
2021/05/03 04:33:42;;;;;;;1.08;1.08;;;3.60;99.90;;;;;;5030263;28;20198;-80
2021/05/03 04:36:09;;;;;;;0.50;0.40;;;3.70;99.90;;;;;;5033783;28;20178;-78
2021/05/03 04:38:36;;;;;;;2.83;2.25;;;3.70;99.90;;;;;;5035960;28;20257;-80
2021/05/03 04:41:02;;;;;;;0.65;0.65;;;3.70;99.90;;;;;;5033975;28;20194;-78
2021/05/03 04:43:29;;;;;;;0.70;0.70;;;3.80;99.90;;;;;;5032033;28;20220;-79
2021/05/03 04:45:56;;;;;;;0.50;0.40;;;3.90;99.90;;;;;;5026355;28;20216;-79
2021/05/03 04:48:22;;;;;;;1.95;1.83;;;4.00;99.90;;;;;;5031496;28;20223;-80
2021/05/03 04:50:49;;;;;;;1.52;1.33;;;4.10;99.90;;;;;;5028964;28;20279;-79
2021/05/03 04:53:15;;;;;;;0.55;0.50;;;4.10;99.90;;;;;;5024438;28;20208;-79
2021/05/03 04:55:41;;;;;;;0.50;0.50;;;4.20;99.90;;;;;;5023195;28;20256;-80
2021/05/03 04:58:08;;;;;;;1.80;1.70;;;4.20;99.90;;;;;;5025353;28;20231;-80
2021/05/03 05:00:35;;;;;;;5.20;1.88;;;4.30;99.90;;;;;;5029240;28;20190;-80
2021/05/03 05:03:02;;;;;;;0.80;0.80;;;4.30;99.90;;;;;;5027746;28;20338;-79
2021/05/03 05:05:28;;;;;;;2.85;2.65;;;4.40;99.90;;;;;;5028865;28;20209;-80
2021/05/03 05:07:55;;;;;;;1.13;1.05;;;4.40;99.90;;;;;;5028537;28;20278;-79
2021/05/03 05:10:22;;;;;;;1.98;1.33;;;4.50;99.90;;;;;;5028439;28;20205;-80
2021/05/03 05:12:49;;;;;;;6.38;1.95;;;4.50;99.90;;;;;;5027805;28;20199;-80
2021/05/03 05:15:16;;;;;;;0.95;0.95;;;4.60;99.90;;;;;;5020486;28;20207;-80
2021/05/03 05:17:43;;;;;;;0.50;0.50;;;4.70;99.90;;;;;;5018656;28;20224;-78
2021/05/03 05:20:10;;;;;;;0.60;0.60;;;4.90;99.90;;;;;;5014720;28;20242;-81
2021/05/03 05:22:37;;;;;;;0.60;0.60;;;5.00;99.90;;;;;;5013781;28;20228;-80
2021/05/03 05:25:04;;;;;;;0.50;0.50;;;5.20;99.90;;;;;;5014379;28;20215;-80
2021/05/03 05:27:30;;;;;;;2.92;2.72;;;5.30;99.90;;;;;;5012305;28;20204;-80
2021/05/03 05:29:56;;;;;;;2.17;1.98;;;5.50;99.90;;;;;;5012008;28;20226;-79
2021/05/03 05:32:23;;;;;;;0.93;0.70;;;5.60;99.90;;;;;;5012426;28;20200;-80
2021/05/03 05:34:53;;;;;;;1.88;1.77;;;5.80;99.90;;;;;;5012153;28;20204;-80
2021/05/03 05:37:19;;;;;;;2.45;2.15;;;6.00;99.90;;;;;;5011521;28;20216;-80
2021/05/03 05:39:47;;;;;;;0.65;0.65;;;6.10;99.90;;;;;;5011762;28;20197;-76
2021/05/03 05:42:13;;;;;;;3.22;3.03;;;6.20;99.90;;;;;;5011134;28;20216;-81
2021/05/03 05:44:40;;;;;;;1.02;1.02;;;6.20;99.90;;;;;;5028751;28;20204;-80
2021/05/03 05:47:06;;;;;;;2.05;0.60;;;6.20;99.90;;;;;;5031665;28;20226;-80
2021/05/03 05:49:32;;;;;;;0.88;0.68;;;6.40;99.90;;;;;;5030768;28;20616;-80
2021/05/03 05:52:00;;;;;;;3.78;2.42;;;6.40;99.90;;;;;;5030504;28;20200;-80
2021/05/03 05:54:26;;;;;;;2.00;1.90;;;6.50;99.90;;;;;;5022124;28;20204;-81
2021/05/03 05:56:54;;;;;;;1.67;1.58;;;6.60;99.90;;;;;;5012501;28;20197;-79
2021/05/03 05:59:20;;;;;;;4.95;2.35;;;6.70;99.90;;;;;;5011710;28;20200;-80
2021/05/03 06:01:46;;;;;;;1.05;0.95;;;7.10;99.90;;;;;;5010089;28;20200;-79
2021/05/03 06:04:13;;;;;;;0.65;0.57;;;7.60;99.90;;;;;;5009539;28;20582;-80
2021/05/03 06:06:39;;;;;;;1.58;1.48;;;8.10;99.90;;;;;;5008114;28;20193;-80
2021/05/03 06:09:06;;;;;;;2.88;1.42;;;8.70;99.90;;;;;;5008368;28;20280;-80
2021/05/03 06:11:33;;;;;;;0.60;0.50;;;9.50;99.90;;;;;;5008751;28;20204;-80
2021/05/03 06:13:59;;;;;;;0.75;0.75;;;10.20;99.90;;;;;;5016824;28;20197;-78
2021/05/03 06:16:25;;;;;;;0.73;0.50;;;10.70;99.90;;;;;;5025303;28;20193;-80
2021/05/03 06:18:54;;;;;;;0.50;0.40;;;11.40;99.90;;;;;;5030999;28;20213;-80
2021/05/03 06:21:20;;;;;;;0.80;0.80;;;11.60;99.90;;;;;;5029837;28;20216;-81
2021/05/03 06:23:46;;;;;;;2.00;1.13;;;11.80;99.90;;;;;;5030616;28;20214;-81
2021/05/03 06:26:13;;;;;;;4.72;3.22;;;11.40;99.90;;;;;;5030267;28;20198;-82
2021/05/03 06:28:39;;;;;;;0.50;0.40;;;11.00;99.90;;;;;;5029967;28;20230;-81
2021/05/03 06:31:06;;;;;;;1.77;1.45;;;10.50;99.90;;;;;;5029434;28;20198;-81
2021/05/03 06:33:32;;;;;;;0.88;0.68;;;10.20;99.90;;;;;;5031172;28;20200;-81
2021/05/03 06:35:58;;;;;;;1.95;1.40;;;9.90;99.90;;;;;;5029783;28;20196;-81
2021/05/03 06:38:25;;;;;;;0.60;0.50;;;9.80;99.90;;;;;;5034131;28;20257;-82
2021/05/03 06:40:51;;;;;;;0.50;0.40;;;9.50;99.90;;;;;;5031034;28;20212;-78
2021/05/03 06:43:19;;;;;;;0.80;0.80;;;9.30;99.90;;;;;;5025948;28;20223;-81
2021/05/03 06:45:45;;;;;;;5.97;2.50;;;9.30;99.90;;;;;;5020179;28;20197;-80
2021/05/03 06:48:12;;;;;;;1.23;1.13;;;9.40;99.90;;;;;;5010215;28;20217;-81
2021/05/03 06:50:41;;;;;;;1.35;1.23;;;9.10;99.90;;;;;;5009735;28;20201;-82
2021/05/03 06:53:08;;;;;;;0.98;0.98;;;9.10;99.90;;;;;;4988234;28;20675;-82
2021/05/03 06:55:34;;;;;;;1.60;1.45;;;9.30;99.90;;;;;;4988838;28;20201;-82
2021/05/03 06:58:00;;;;;;;1.73;1.50;;;9.40;99.90;;;;;;4991228;28;20256;-80
2021/05/03 07:00:27;;;;;;;0.50;0.40;;;9.00;99.90;;;;;;4990719;28;20197;-81
2021/05/03 07:02:53;;;;;;;1.63;1.48;;;8.80;99.90;;;;;;4990219;28;20217;-81
2021/05/03 07:05:20;;;;;;;1.58;1.30;;;8.90;99.90;;;;;;4991194;28;20194;-82
2021/05/03 07:07:46;;;;;;;2.63;1.27;;;9.00;99.90;;;;;;4990090;28;20221;-79
2021/05/03 07:10:13;;;;;;;0.70;0.70;;;9.10;99.90;;;;;;4990737;28;20205;-83
2021/05/03 07:12:43;;;;;;;0.88;0.88;;;9.10;99.90;;;;;;4994552;28;20221;-81
2021/05/03 07:15:11;;;;;;;1.15;0.85;;;9.20;99.90;;;;;;5021013;28;20643;-81
2021/05/03 07:17:39;;;;;;;1.92;1.83;;;9.50;99.90;;;;;;5029027;28;20284;-80
2021/05/03 07:20:08;;;;;;;0.90;0.75;;;9.90;99.90;;;;;;5028146;28;20213;-81
2021/05/03 07:22:34;;;;;;;1.50;0.82;;;10.20;99.90;;;;;;5028762;28;20260;-80
2021/05/03 07:25:02;;;;;;;1.50;1.30;;;10.30;99.90;;;;;;5028581;28;20582;-81
2021/05/03 07:27:29;;;;;;;3.35;1.52;;;10.30;99.90;;;;;;5029116;28;20215;-81
2021/05/03 07:29:55;;;;;;;1.98;1.88;;;10.20;99.90;;;;;;5027661;28;20205;-81
2021/05/03 07:32:24;;;;;;;3.70;1.75;;;10.30;99.90;;;;;;5028665;28;20197;-81
2021/05/03 07:34:52;;;;;;;0.50;0.40;;;10.40;99.90;;;;;;5021876;28;20260;-77
2021/05/03 07:37:18;;;;;;;1.30;0.93;;;10.50;99.90;;;;;;5022154;28;20240;-81
2021/05/03 07:39:44;;;;;;;1.98;1.27;;;10.40;99.90;;;;;;5009704;28;20205;-81
2021/05/03 07:42:11;;;;;;;0.50;0.50;;;10.70;99.90;;;;;;5007582;28;20205;-81
2021/05/03 07:44:38;;;;;;;0.50;0.40;;;10.50;99.90;;;;;;5024707;28;20197;-79
2021/05/03 07:47:04;;;;;;;0.88;0.88;;;10.20;99.90;;;;;;5028373;28;20221;-82
2021/05/03 07:49:31;;;;;;;1.35;1.25;;;10.10;99.90;;;;;;5021158;28;20194;-80
2021/05/03 07:51:58;;;;;;;1.40;1.25;;;10.10;99.90;;;;;;5006710;28;20319;-80
2021/05/03 07:54:25;;;;;;;2.15;2.05;;;10.10;99.90;;;;;;5008463;28;20252;-80
2021/05/03 07:56:51;;;;;;;3.15;1.85;;;10.20;99.90;;;;;;5008499;28;20208;-79
2021/05/03 07:59:17;;;;;;;0.50;0.50;;;10.50;99.90;;;;;;5011971;28;20206;-82
2021/05/03 08:01:44;;;;;;;3.17;2.78;;;10.60;99.90;;;;;;5009523;28;20221;-81
2021/05/03 08:04:10;;;;;;;0.57;0.55;;;11.00;99.90;;;;;;5008675;28;20228;-82
2021/05/03 08:06:36;;;;;;;1.50;1.40;;;11.50;99.90;;;;;;5008193;28;20586;-81
2021/05/03 08:09:05;;;;;;;1.27;0.75;;;12.10;99.90;;;;;;5008660;28;20220;-82
2021/05/03 08:11:33;;;;;;;1.08;0.98;;;12.50;99.90;;;;;;5008339;28;20692;-81
2021/05/03 08:13:59;;;;;;;3.75;1.58;;;12.70;99.90;;;;;;5016711;28;20188;-82
2021/05/03 08:16:27;;;;;;;0.85;0.85;;;12.90;99.90;;;;;;5013134;28;20197;-81
2021/05/03 08:18:54;;;;;;;1.45;0.55;;;13.40;99.90;;;;;;5008588;28;20235;-82
2021/05/03 08:21:20;;;;;;;0.70;0.70;;;13.80;99.90;;;;;;5008327;28;20714;-81
2021/05/03 08:23:46;;;;;;;0.80;0.80;;;13.70;99.90;;;;;;5008325;28;20224;-82
2021/05/03 08:26:13;;;;;;;1.02;0.88;;;13.40;99.90;;;;;;5008361;28;20192;-81
2021/05/03 08:28:40;;;;;;;0.50;0.50;;;13.10;99.90;;;;;;5008588;28;20307;-79
2021/05/03 08:31:07;;;;;;;4.55;1.52;;;12.60;99.90;;;;;;5005624;28;20662;-81
2021/05/03 08:33:33;;;;;;;2.13;1.73;;;12.40;99.90;;;;;;5007958;28;20204;-81
2021/05/03 08:36:00;;;;;;;0.80;0.80;;;12.00;99.90;;;;;;5007486;28;20626;-82
2021/05/03 08:38:26;;;;;;;0.68;0.68;;;12.50;99.90;;;;;;5024366;28;20222;-82
2021/05/03 08:40:53;;;;;;;3.15;2.13;;;12.70;99.90;;;;;;5026734;28;20578;-82
2021/05/03 08:43:21;;;;;;;3.05;1.00;;;12.60;99.90;;;;;;5024828;28;20277;-82
2021/05/03 08:45:48;;;;;;;1.95;1.77;;;12.30;99.90;;;;;;5019336;28;20242;-81
2021/05/03 08:48:20;;;;;;;1.52;1.42;;;12.50;99.90;;;;;;5029362;28;20250;-82
2021/05/03 08:50:55;;;;;;;0.50;0.40;;;12.80;99.90;;;;;;5031648;28;20184;-82
2021/05/03 08:53:26;;;;;;;2.35;1.45;;;12.90;99.90;;;;;;5031023;28;20219;-81
2021/05/03 08:55:53;;;;;;;0.70;0.40;;;12.90;99.90;;;;;;5031939;28;20181;-81
2021/05/03 08:58:20;;;;;;;1.50;0.55;;;12.90;99.90;;;;;;5028725;28;20227;-79
2021/05/03 09:00:46;;;;;;;1.27;1.17;;;13.20;99.90;;;;;;5030571;28;20196;-81
2021/05/03 09:03:13;;;;;;;2.45;2.25;;;13.30;99.50;;;;;;5049110;22;20245;-78
2021/05/03 09:05:41;;;;;;;3.42;2.15;;;13.00;98.70;;;;;;5034183;28;20238;-80
2021/05/03 09:08:09;;;;;;;1.02;0.93;;;12.80;99.00;;;;;;5035970;28;20527;-80
2021/05/03 09:10:46;;;;;;;3.30;1.92;;;13.00;99.20;;;;;;5035600;28;20199;-79
2021/05/03 09:13:13;;;;;;;9.43;1.15;;;13.50;97.90;;;;;;5035630;28;20210;-81
2021/05/03 09:15:41;;;;;;;1.77;1.35;;;14.30;96.80;;;;;;5027247;28;20238;-79
2021/05/03 09:18:07;;;;;;;4.60;2.85;;;14.50;93.10;;;;;;5036386;28;20198;-79
2021/05/03 09:20:34;;;;;;;1.70;1.60;;;14.50;91.50;;;;;;5035662;28;20199;-79
2021/05/03 09:23:06;;;;;;;2.03;1.80;;;14.00;92.30;;;;;;5035176;28;20237;-79
2021/05/03 09:25:34;;;;;;;3.67;2.70;;;13.50;92.70;;;;;;5035527;28;20205;-77
2021/05/03 09:28:07;;;;;;;1.25;1.15;;;13.30;93.10;;;;;;5035054;28;20199;-78
2021/05/03 09:30:41;;;;;;;0.68;0.68;;;13.30;94.40;;;;;;5036010;28;20253;-79
2021/05/03 09:33:16;;;;;;;1.88;1.63;;;13.40;93.90;;;;;;5035050;28;20182;-80
2021/05/03 09:35:47;;;;;;;3.38;2.58;;;13.70;93.20;;;;;;5019342;28;20194;-80
2021/05/03 09:38:36;;;;;;;1.45;1.35;;;14.20;91.80;;;;;;5015960;28;20201;-81
2021/05/03 09:41:14;;;;;;;3.75;2.00;;;15.00;90.50;;;;;;5014929;28;20657;-77
2021/05/03 09:43:43;;;;;;;1.30;1.20;;;15.60;87.60;;;;;;5021007;28;20219;-79
2021/05/03 09:46:30;;;;;;;3.92;2.90;;;14.80;86.80;;;;;;5026724;28;20441;-79
2021/05/03 09:48:58;;;;;;;0.52;0.40;;;14.60;84.60;;;;;;5034763;28;20200;-80
2021/05/03 09:51:39;;;;;;;0.60;0.50;;;15.30;86.20;;;;;;5030993;28;20248;-78
2021/05/03 09:54:11;;;;;;;2.57;2.40;;;16.10;82.10;;;;;;5019441;28;20462;-79
2021/05/03 09:56:52;;;;;;;0.60;0.50;;;16.50;77.60;;;;;;5034716;28;20446;-79
2021/05/03 09:59:39;;;;;;;0.70;0.60;;;16.40;74.50;;;;;;5033508;28;20453;-79
2021/05/03 10:02:14;;;;;;;4.60;2.40;;;16.50;74.90;;;;;;5034323;28;20978;-79
2021/05/03 10:04:59;;;;;;;0.57;0.53;;;16.30;69.70;;;;;;5034294;28;20464;-79
2021/05/03 10:07:27;;;;;;;2.10;2.00;;;15.90;71.00;;;;;;5023094;28;20438;-79
2021/05/03 10:10:00;;;;;;;0.60;0.57;;;15.70;70.80;;;;;;5014294;28;20509;-79
2021/05/03 10:12:28;;;;;;;2.43;2.10;;;15.70;70.90;;;;;;5014238;28;20466;-79
2021/05/03 10:14:57;;;;;;;1.33;0.80;;;15.50;73.50;;;;;;5027556;28;20469;-78
2021/05/03 10:17:27;;;;;;;0.80;0.60;;;14.90;72.30;;;;;;5031770;28;20431;-79
2021/05/03 10:19:56;;;;;;;3.27;2.90;;;14.90;73.30;;;;;;5035749;28;20445;-79
2021/05/03 10:22:24;;;;;;;1.42;0.88;;;15.00;73.20;;;;;;5033661;28;21001;-79
2021/05/03 10:24:53;;;;;;;1.37;0.83;;;14.90;74.20;;;;;;5033274;28;20764;-77
2021/05/03 10:27:21;;;;;;;1.60;1.03;;;15.00;75.80;;;;;;5034233;28;20492;-79
2021/05/03 10:29:49;;;;;;;0.93;0.83;;;14.70;72.90;;;;;;5033799;28;20496;-80
2021/05/03 10:32:22;;;;;;;0.93;0.82;;;14.60;73.30;;;;;;5032797;28;20478;-78
2021/05/03 10:34:50;;;;;;;2.70;1.60;;;15.00;74.10;;;;;;5024780;28;20685;-77
2021/05/03 10:37:51;;;;;;;0.50;0.50;;;15.10;71.70;;;;;;5013216;28;20446;-78
2021/05/03 10:40:47;;;;;;;3.13;1.87;;;15.40;72.80;;;;;;5015344;28;20415;-78
2021/05/03 10:43:18;;;;;;;1.37;1.27;;;15.50;70.10;;;;;;5016130;28;20561;-78
2021/05/03 10:45:51;;;;;;;2.93;2.77;;;15.40;70.20;;;;;;5025623;28;20450;-79
2021/05/03 10:48:41;;;;;;;0.50;0.43;;;15.50;70.90;;;;;;5033821;28;20515;-79
2021/05/03 10:51:48;;;;;;;6.57;3.00;;;15.90;72.50;;;;;;5033869;28;20434;-75
2021/05/03 10:54:35;;;;;;;7.60;2.30;;;15.10;68.60;;;;;;5033322;28;20587;-79
2021/05/03 10:57:04;;;;;;;2.40;1.63;;;14.70;70.30;;;;;;5033737;28;20461;-75
2021/05/03 10:59:45;;;;;;;5.75;4.30;;;14.70;71.60;;;;;;5032983;28;20238;-78
2021/05/03 11:02:18;;;;;;;1.60;1.50;;;14.70;72.00;;;;;;5033049;28;20199;-76
2021/05/03 11:05:13;;;;;;;1.60;1.60;;;14.60;70.80;;;;;;5033219;28;20983;-78
2021/05/03 11:08:22;;;;;;;0.60;0.60;;;14.80;71.70;;;;;;5019671;28;20213;-79
2021/05/03 11:11:02;;;;;;;1.80;1.70;;;15.10;70.90;;;;;;4987743;28;20670;-78
2021/05/03 11:13:48;;;;;;;0.57;0.57;;;15.30;69.70;;;;;;5017449;28;20466;-80
2021/05/03 11:16:53;;;;;;;1.57;1.47;;;15.00;69.20;;;;;;5015596;28;20458;-78
2021/05/03 11:22:25;;;;;;;1.70;1.37;;;14.40;72.50;;;;;;5002724;28;20530;-80
2021/05/03 11:24:55;;;;;;;2.08;1.90;;;14.50;71.40;;;;;;5013115;28;20463;-79
2021/05/03 11:27:37;;;;;;;1.10;1.00;;;14.20;71.70;;;;;;5013598;28;20688;-79
2021/05/03 11:30:07;;;;;;;2.43;1.10;;;14.00;71.50;;;;;;5013753;28;20602;-80
2021/05/03 11:32:36;;;;;;;5.32;2.60;;;13.90;72.60;;;;;;5013283;28;20438;-79
2021/05/03 11:35:13;;;;;;;1.25;1.15;;;13.80;70.80;;;;;;5012923;28;20219;-79
2021/05/03 11:37:45;;;;;;;1.73;1.63;;;13.60;71.60;;;;;;5013836;28;20215;-78
2021/05/03 11:40:23;;;;;;;1.80;1.13;;;13.50;71.30;;;;;;5013578;28;20204;-78
2021/05/03 11:45:31;;;;;;;1.80;1.70;;;13.70;73.90;;;;;;5017306;28;20180;-79
2021/05/03 11:47:59;;;;;;;1.83;1.73;;;14.00;74.70;;;;;;5032218;28;20724;-77
2021/05/03 11:50:27;;;;;;;0.50;0.40;;;14.10;76.10;;;;;;5019422;28;20278;-79
2021/05/03 11:52:54;;;;;;;2.30;1.73;;;14.00;72.20;;;;;;5013299;28;20505;-79
2021/05/03 11:55:23;;;;;;;0.60;0.60;;;13.80;71.40;;;;;;5012764;28;20462;-77
2021/05/03 11:57:50;;;;;;;1.08;1.05;;;13.80;75.40;;;;;;5012771;28;20378;-80
2021/05/03 12:00:19;;;;;;;1.10;1.00;;;14.00;75.50;;;;;;5015306;28;20263;-78
2021/05/03 12:02:46;;;;;;;1.73;1.08;;;13.90;71.80;;;;;;5012756;28;20304;-78
2021/05/03 12:05:14;;;;;;;0.50;0.40;;;13.80;72.70;;;;;;5012708;28;20228;-78
2021/05/03 12:07:41;;;;;;;0.93;0.93;;;13.60;72.60;;;;;;5012226;28;20200;-80
2021/05/03 12:10:10;;;;;;;1.10;0.82;;;13.80;73.90;;;;;;5012754;28;20446;-76
2021/05/03 12:12:38;;;;;;;0.80;0.80;;;13.90;73.70;;;;;;5013770;28;20196;-79
2021/05/03 12:15:10;;;;;;;0.82;0.82;;;14.00;74.10;;;;;;5026870;28;20222;-79
2021/05/03 12:17:38;;;;;;;0.67;0.67;;;14.20;74.30;;;;;;5030099;28;20267;-78
2021/05/03 12:20:07;;;;;;;1.15;1.08;;;14.40;73.20;;;;;;5033203;28;20442;-79
2021/05/03 12:22:35;;;;;;;1.20;0.90;;;14.30;71.50;;;;;;5031894;28;20202;-78
2021/05/03 12:25:05;;;;;;;3.42;3.13;;;14.30;72.30;;;;;;5031397;28;20470;-76
2021/05/03 12:27:32;;;;;;;2.88;2.67;;;14.10;71.20;;;;;;5032294;28;20241;-79
2021/05/03 12:29:58;;;;;;;1.40;1.30;;;13.90;71.20;;;;;;5032810;28;20210;-78
2021/05/03 12:32:32;;;;;;;1.70;1.60;;;13.80;72.60;;;;;;5032772;28;21174;-77
2021/05/03 12:35:08;;;;;;;1.98;1.77;;;13.40;75.00;;;;;;5032014;28;20223;-78
2021/05/03 12:37:35;;;;;;;1.55;1.35;;;13.10;77.60;;;;;;5033379;28;20183;-77
2021/05/03 12:40:06;;;;;;;0.50;0.40;;;13.00;78.40;;;;;;5033557;28;20265;-80
2021/05/03 12:42:44;;;;;;;0.50;0.40;;;13.30;79.70;;;;;;5033267;28;20637;-78
2021/05/03 12:45:27;;;;;;;1.85;1.13;;;13.60;79.90;;;;;;5027903;28;20580;-78
2021/05/03 12:48:04;;;;;;;0.50;0.50;;;13.80;78.00;;;;;;5031732;28;20246;-78
2021/05/03 12:50:51;;;;;;;0.50;0.40;;;14.20;79.80;;;;;;5019453;28;20271;-79
2021/05/03 12:53:23;;;;;;;0.50;0.40;;;14.70;76.40;;;;;;5012925;28;20306;-79
2021/05/03 12:56:14;;;;;;;0.95;0.70;;;14.90;77.20;;;;;;5013440;28;20201;-79
2021/05/03 12:58:54;;;;;;;1.23;0.98;;;15.00;73.70;;;;;;5012842;28;20200;-77
2021/05/03 13:01:29;;;;;;;0.60;0.60;;;15.20;73.70;;;;;;5009007;28;20840;-79
2021/05/03 13:04:04;;;;;;;1.15;1.15;;;15.40;72.30;;;;;;5011796;28;20489;-79
2021/05/03 13:06:39;;;;;;;1.63;1.37;;;15.50;70.80;;;;;;5013349;28;20261;-79
2021/05/03 13:09:24;;;;;;;3.20;2.03;;;15.40;70.10;;;;;;5012569;28;20474;-78
2021/05/03 13:12:09;;;;;;;0.87;0.70;;;15.50;65.80;;;;;;5016938;28;20196;-77
2021/05/03 13:29:02;;;;;;;1.77;1.63;;;16.00;62.40;;;;;;5011838;28;20753;-79
2021/05/03 14:30:42;;;;;;;0.93;0.85;;;13.80;69.10;;;;;;5108858;27;20582;-79
2021/05/03 14:33:14;;;;;;;2.65;1.90;;;13.80;69.90;;;;;;5089303;28;20188;-78